Sturry, United Kingdom
Current Conditions -  °F | °C
As of 1:20 PM on Thursday 23 Oct 2014 (Local Time) from EGMD Reporting Station
Rain Showers Rain Showers  
Wind Chill: 15°   Ceiling: 3700
Heat Index: 15°   Visibility: 6mi
Dew Point: 13°   Wind: 22mph
Humidity: 88%   Direction: 230°SW
Pressure: 30.15"   Gusts: NA
Location:  51.3°N, 1.12°E
Report Text: EGMD 231220Z 23019KT 9999 VCSH FEW013 SCT028 BKN037 15/13 Q1021
Loading
Personal Weather Stations






























Interactive Weather Map
Tropical Storm Tracking
New forecast layout! Learn more

10-Day Weather Forecast

Advertisements
Track Severe Weather on mobile